createdAt,value
2023-02-01T00:01:11.392Z,4.50
2023-02-01T00:03:38.185Z,4.50
2023-02-01T00:06:05.096Z,4.60
2023-02-01T00:08:31.851Z,4.70
2023-02-01T00:11:08.829Z,4.80
2023-02-01T00:13:38.956Z,4.80
2023-02-01T00:16:10.095Z,4.80
2023-02-01T00:18:37.079Z,4.80
2023-02-01T00:21:03.975Z,4.80
2023-02-01T00:23:34.195Z,4.80
2023-02-01T00:26:08.484Z,4.90
2023-02-01T00:28:35.219Z,5.00
2023-02-01T00:31:03.308Z,5.00
2023-02-01T00:33:30.671Z,5.10
2023-02-01T00:36:01.674Z,5.10
2023-02-01T00:38:28.720Z,5.00
2023-02-01T00:40:55.766Z,5.00
2023-02-01T00:43:22.520Z,5.00
2023-02-01T00:45:49.190Z,5.00
2023-02-01T00:48:15.930Z,5.00
2023-02-01T00:50:43.756Z,5.00
2023-02-01T00:53:11.497Z,4.90
2023-02-01T00:55:38.207Z,4.90
2023-02-01T00:58:06.900Z,4.90
2023-02-01T01:00:34.122Z,4.80
2023-02-01T01:03:00.941Z,4.70
2023-02-01T01:05:28.769Z,4.80
2023-02-01T01:07:55.602Z,4.80
2023-02-01T01:10:23.309Z,4.80
2023-02-01T01:12:50.246Z,4.80
2023-02-01T01:15:17.000Z,4.80
2023-02-01T01:17:44.160Z,4.80
2023-02-01T01:20:11.604Z,4.80
2023-02-01T01:22:38.353Z,4.70
2023-02-01T01:25:05.671Z,4.60
2023-02-01T01:27:32.350Z,4.60
2023-02-01T01:29:59.106Z,4.50
2023-02-01T01:32:25.867Z,4.50
2023-02-01T01:34:52.613Z,4.50
2023-02-01T01:37:19.337Z,4.50
2023-02-01T01:39:46.104Z,4.50
2023-02-01T01:42:14.310Z,4.50
2023-02-01T01:45:06.850Z,4.50
2023-02-01T01:47:42.799Z,4.40
2023-02-01T01:50:11.028Z,4.40
2023-02-01T01:52:37.754Z,4.30
2023-02-01T01:55:04.736Z,4.20
2023-02-01T01:57:36.702Z,4.20
2023-02-01T02:00:08.507Z,4.10
2023-02-01T02:02:35.879Z,4.10
2023-02-01T02:05:02.664Z,4.00
2023-02-01T02:10:01.865Z,4.00
2023-02-01T02:12:29.090Z,4.00
2023-02-01T02:14:55.823Z,3.90
2023-02-01T02:17:25.574Z,3.90
2023-02-01T02:19:57.799Z,3.90
2023-02-01T02:23:02.232Z,3.80
2023-02-01T02:25:53.129Z,3.80
2023-02-01T02:28:44.202Z,3.80
2023-02-01T02:31:48.858Z,3.80
2023-02-01T02:34:40.189Z,3.80
2023-02-01T02:37:38.985Z,3.80
2023-02-01T02:40:24.816Z,3.60
2023-02-01T02:43:31.520Z,3.50
2023-02-01T02:46:21.495Z,3.40
2023-02-01T02:49:00.725Z,3.40
2023-02-01T02:51:59.662Z,3.30
2023-02-01T02:54:47.692Z,3.30
2023-02-01T02:57:39.067Z,3.30
2023-02-01T03:00:29.666Z,3.30
2023-02-01T03:03:15.003Z,3.20
2023-02-01T03:05:46.250Z,3.10
2023-02-01T03:08:23.543Z,3.20
2023-02-01T03:11:08.243Z,3.10
2023-02-01T03:13:46.019Z,3.10
2023-02-01T03:16:29.526Z,3.10
2023-02-01T03:19:01.479Z,3.10
2023-02-01T03:21:32.853Z,3.00
2023-02-01T03:24:02.946Z,3.00
2023-02-01T03:26:30.418Z,2.90
2023-02-01T03:29:06.833Z,2.90
2023-02-01T03:31:33.882Z,2.90
2023-02-01T03:34:00.648Z,2.80
2023-02-01T03:36:32.677Z,2.80
2023-02-01T03:39:12.958Z,2.80
2023-02-01T03:41:49.865Z,2.80
2023-02-01T03:44:36.119Z,2.80
2023-02-01T03:47:14.731Z,2.80
2023-02-01T03:49:46.444Z,2.80
2023-02-01T03:52:16.334Z,2.80
2023-02-01T03:54:43.437Z,2.90
2023-02-01T03:57:13.173Z,2.80
2023-02-01T03:59:41.962Z,2.90
2023-02-01T04:02:09.004Z,2.90
2023-02-01T04:04:35.909Z,2.90
2023-02-01T04:07:02.684Z,2.90
2023-02-01T04:09:29.493Z,2.80
2023-02-01T04:11:56.246Z,2.80
2023-02-01T04:14:22.986Z,2.80
2023-02-01T04:16:49.808Z,2.70
2023-02-01T04:19:16.505Z,2.70
2023-02-01T04:21:43.290Z,2.70
2023-02-01T04:24:10.036Z,2.80
2023-02-01T04:26:36.855Z,2.80
2023-02-01T04:29:03.606Z,2.80
2023-02-01T04:31:30.431Z,2.70
2023-02-01T04:33:58.636Z,2.70
2023-02-01T04:36:25.574Z,2.70
2023-02-01T04:38:52.646Z,2.70
2023-02-01T04:41:20.182Z,2.70
2023-02-01T04:43:48.006Z,2.70
2023-02-01T04:46:14.943Z,2.70
2023-02-01T04:48:42.032Z,2.60
2023-02-01T04:51:08.910Z,2.60
2023-02-01T04:53:35.680Z,2.50
2023-02-01T04:56:02.730Z,2.50
2023-02-01T04:58:29.398Z,2.50
2023-02-01T05:00:56.139Z,2.50
2023-02-01T05:03:22.812Z,2.50
2023-02-01T05:05:50.030Z,2.50
2023-02-01T05:08:16.925Z,2.60
2023-02-01T05:10:43.670Z,2.60
2023-02-01T05:13:29.659Z,2.60
2023-02-01T05:15:56.328Z,2.60
2023-02-01T05:18:23.088Z,2.50
2023-02-01T05:20:49.817Z,2.50
2023-02-01T05:23:16.535Z,2.40
2023-02-01T05:25:43.395Z,2.30
2023-02-01T05:28:10.140Z,2.20
2023-02-01T05:30:36.936Z,2.20
2023-02-01T05:33:04.257Z,2.20
2023-02-01T05:35:30.945Z,2.30
2023-02-01T05:37:57.679Z,2.30
2023-02-01T05:40:24.784Z,2.40
2023-02-01T05:42:51.708Z,2.40
2023-02-01T05:45:18.380Z,2.40
2023-02-01T05:47:45.079Z,2.50
2023-02-01T05:50:11.966Z,2.40
2023-02-01T05:52:38.727Z,2.40
2023-02-01T05:55:06.017Z,2.40
2023-02-01T05:57:32.707Z,2.30
2023-02-01T06:00:00.561Z,2.30
2023-02-01T06:02:27.717Z,2.30
2023-02-01T06:04:54.519Z,2.30
2023-02-01T06:07:21.613Z,2.40
2023-02-01T06:09:48.284Z,2.40
2023-02-01T06:12:14.996Z,2.50
2023-02-01T06:14:42.057Z,2.60
2023-02-01T06:17:09.336Z,2.70
2023-02-01T06:19:36.149Z,2.70
2023-02-01T06:22:02.858Z,2.70
2023-02-01T06:24:29.572Z,2.60
2023-02-01T06:26:56.447Z,2.50
2023-02-01T06:29:23.363Z,2.50
2023-02-01T06:31:50.139Z,2.50
2023-02-01T06:34:16.994Z,2.60
2023-02-01T06:36:43.791Z,2.70
2023-02-01T06:39:10.637Z,2.70
2023-02-01T06:41:37.368Z,2.70
2023-02-01T06:44:04.196Z,2.80
2023-02-01T06:46:31.098Z,2.90
2023-02-01T06:48:57.950Z,3.00
2023-02-01T06:51:28.307Z,3.70
2023-02-01T06:53:55.138Z,5.00
2023-02-01T06:56:22.015Z,6.50
2023-02-01T06:58:48.990Z,7.80
2023-02-01T07:01:25.439Z,8.80
2023-02-01T07:03:52.393Z,9.10
2023-02-01T07:06:19.275Z,9.10
2023-02-01T07:08:46.352Z,9.20
2023-02-01T07:11:13.988Z,10.10
2023-02-01T07:13:40.835Z,10.90
2023-02-01T07:16:10.469Z,11.60
2023-02-01T07:18:37.321Z,12.00
2023-02-01T07:21:04.329Z,12.40
2023-02-01T07:23:31.187Z,12.90
2023-02-01T07:25:59.309Z,13.30
2023-02-01T07:28:26.286Z,13.30
2023-02-01T07:30:53.253Z,13.40
2023-02-01T07:33:22.109Z,13.60
2023-02-01T07:35:49.428Z,13.70
2023-02-01T07:38:16.367Z,14.00
2023-02-01T07:40:43.259Z,14.20
2023-02-01T07:43:10.126Z,14.40
2023-02-01T07:45:37.297Z,14.70
2023-02-01T07:48:04.554Z,14.90
2023-02-01T07:50:31.413Z,15.00
2023-02-01T07:53:01.697Z,15.00
2023-02-01T07:55:28.921Z,15.20
2023-02-01T07:57:59.032Z,15.70
2023-02-01T08:00:45.197Z,15.80
2023-02-01T08:03:11.998Z,16.10
2023-02-01T08:05:38.853Z,16.00
2023-02-01T08:08:06.082Z,15.70
2023-02-01T08:10:32.998Z,15.50
2023-02-01T08:13:00.900Z,15.80
2023-02-01T08:15:28.593Z,16.30
2023-02-01T08:17:55.981Z,17.00
2023-02-01T08:20:24.450Z,17.80
2023-02-01T08:22:54.260Z,17.80
2023-02-01T08:25:21.685Z,17.90
2023-02-01T08:27:48.599Z,18.00
2023-02-01T08:30:15.525Z,18.00
2023-02-01T08:32:42.442Z,17.70
2023-02-01T08:35:09.565Z,17.60
2023-02-01T08:37:36.532Z,18.00
2023-02-01T08:40:04.280Z,18.30
2023-02-01T08:42:49.654Z,18.40
2023-02-01T08:45:16.596Z,18.60
2023-02-01T08:47:44.924Z,18.70
2023-02-01T08:50:11.992Z,19.10
2023-02-01T08:52:38.813Z,19.30
2023-02-01T08:55:06.750Z,19.40
2023-02-01T08:57:34.499Z,19.20
2023-02-01T09:00:01.321Z,19.40
2023-02-01T09:02:28.119Z,19.60
2023-02-01T09:04:55.075Z,19.70
2023-02-01T09:07:21.899Z,19.90
2023-02-01T09:09:48.718Z,20.00
2023-02-01T09:12:15.526Z,20.40
2023-02-01T09:14:42.330Z,20.80
2023-02-01T09:17:09.221Z,21.20
2023-02-01T09:19:36.057Z,21.30
2023-02-01T09:22:02.876Z,21.40
2023-02-01T09:24:29.697Z,21.50
2023-02-01T09:26:56.502Z,21.60
2023-02-01T09:29:23.444Z,21.50
2023-02-01T09:32:03.018Z,21.80
2023-02-01T09:34:30.834Z,22.10
2023-02-01T09:36:57.684Z,22.40
2023-02-01T09:39:24.598Z,22.30
2023-02-01T09:41:55.145Z,22.40
2023-02-01T09:44:45.748Z,22.50
2023-02-01T09:47:14.536Z,22.70
2023-02-01T09:49:47.359Z,22.90
2023-02-01T09:52:14.318Z,23.10
2023-02-01T09:54:43.613Z,23.30
2023-02-01T09:57:39.659Z,23.30
2023-02-01T10:00:19.235Z,23.20
2023-02-01T10:02:46.115Z,23.30
2023-02-01T10:05:15.315Z,23.20
2023-02-01T10:07:52.432Z,23.00
2023-02-01T10:10:28.494Z,22.60
2023-02-01T10:13:23.008Z,22.90
2023-02-01T10:16:17.775Z,23.30
2023-02-01T10:18:56.349Z,23.50
2023-02-01T10:21:23.135Z,23.80
2023-02-01T10:24:09.115Z,24.00
2023-02-01T10:26:45.971Z,23.70
2023-02-01T10:29:20.207Z,22.70
2023-02-01T10:31:47.164Z,22.50
2023-02-01T10:34:24.364Z,22.50
2023-02-01T10:36:55.652Z,22.50
2023-02-01T10:39:22.634Z,21.90
2023-02-01T10:41:49.649Z,21.50
2023-02-01T10:44:23.498Z,21.10
2023-02-01T10:46:51.309Z,21.10
2023-02-01T10:49:37.992Z,21.10
2023-02-01T10:52:15.593Z,21.00
2023-02-01T10:54:43.165Z,20.70
2023-02-01T10:57:32.876Z,20.60
2023-02-01T10:59:59.731Z,20.40
2023-02-01T11:02:30.220Z,20.40
2023-02-01T11:05:04.972Z,20.70
2023-02-01T11:50:50.432Z,18.70
2023-02-01T11:53:38.373Z,18.30
2023-02-01T11:56:08.143Z,17.80
2023-02-01T11:59:04.613Z,17.40
2023-02-01T12:01:38.203Z,17.50
2023-02-01T12:04:15.265Z,17.50
2023-02-01T12:06:50.882Z,17.60
2023-02-01T12:09:36.603Z,17.40
2023-02-01T12:12:09.361Z,17.30
2023-02-01T12:15:02.685Z,17.30
2023-02-01T12:18:06.998Z,17.30
2023-02-01T12:20:42.712Z,17.20
2023-02-01T12:23:18.622Z,17.00
2023-02-01T12:26:03.673Z,16.90
2023-02-01T12:28:33.375Z,16.60
2023-02-01T12:31:20.170Z,16.50
2023-02-01T12:33:50.677Z,16.40
2023-02-01T12:36:24.606Z,16.30
2023-02-01T12:39:13.358Z,16.30
2023-02-01T12:41:51.056Z,16.10
2023-02-01T12:44:36.005Z,16.00
2023-02-01T12:47:08.270Z,15.70
2023-02-01T12:49:35.149Z,15.60
2023-02-01T12:52:04.624Z,15.40
2023-02-01T12:54:54.717Z,15.20
2023-02-01T12:57:31.626Z,15.00
2023-02-01T13:00:13.595Z,14.90
2023-02-01T13:02:55.398Z,14.70
2023-02-01T13:05:25.213Z,14.70
2023-02-01T13:08:06.058Z,14.80
2023-02-01T13:10:37.591Z,14.80
2023-02-01T13:13:45.719Z,14.80
2023-02-01T13:16:46.041Z,14.70
2023-02-01T13:19:39.152Z,14.60
2023-02-01T13:22:32.392Z,14.50
2023-02-01T13:25:05.024Z,14.50
2023-02-01T13:27:32.212Z,14.50
2023-02-01T13:30:15.636Z,14.60
2023-02-01T13:33:18.234Z,14.50
2023-02-01T13:35:58.661Z,14.50
2023-02-01T13:39:03.559Z,14.40
2023-02-01T13:41:39.406Z,14.40
2023-02-01T13:44:13.729Z,14.40
2023-02-01T13:46:45.063Z,14.40
2023-02-01T13:49:29.113Z,14.20
2023-02-01T13:51:57.229Z,14.10
2023-02-01T13:54:38.020Z,14.00
2023-02-01T13:57:06.130Z,13.80
2023-02-01T13:59:41.945Z,13.80
2023-02-01T14:02:54.064Z,13.70
2023-02-01T14:05:24.035Z,13.60
2023-02-01T14:08:06.353Z,13.50
2023-02-01T14:10:56.733Z,13.30
2023-02-01T14:13:36.715Z,13.30
2023-02-01T14:16:03.703Z,13.30
2023-02-01T14:18:41.893Z,13.20
2023-02-01T14:21:24.235Z,13.20
2023-02-01T14:23:54.304Z,13.10
2023-02-01T14:26:36.221Z,13.10
2023-02-01T14:29:12.742Z,13.00
2023-02-01T14:31:42.607Z,13.00
2023-02-01T14:34:35.411Z,13.00
2023-02-01T14:37:07.253Z,12.90
2023-02-01T14:39:58.927Z,12.90
2023-02-01T14:42:46.037Z,12.90
2023-02-01T14:45:23.257Z,12.80
2023-02-01T14:47:55.444Z,12.80
2023-02-01T14:50:29.158Z,12.70
2023-02-01T14:53:10.817Z,12.60
2023-02-01T14:55:54.981Z,12.50
2023-02-01T14:58:39.960Z,12.50
2023-02-01T15:01:26.217Z,12.40
2023-02-01T15:04:16.118Z,12.40
2023-02-01T15:06:43.543Z,12.30
2023-02-01T15:09:29.536Z,12.30
2023-02-01T15:12:18.361Z,12.20
2023-02-01T15:14:52.159Z,12.20
2023-02-01T15:17:21.214Z,12.20
2023-02-01T15:19:55.513Z,12.20
2023-02-01T15:22:22.491Z,12.10
2023-02-01T15:25:01.621Z,12.00
2023-02-01T15:27:29.175Z,12.00
2023-02-01T15:30:05.548Z,12.00
2023-02-01T15:32:34.338Z,12.00
2023-02-01T15:35:01.303Z,12.00
2023-02-01T15:37:28.662Z,12.00
2023-02-01T15:40:13.722Z,12.00
2023-02-01T15:42:55.258Z,12.00
2023-02-01T15:45:24.438Z,11.90
2023-02-01T15:47:52.088Z,11.80
2023-02-01T15:50:24.092Z,11.80
2023-02-01T15:52:53.543Z,11.60
2023-02-01T15:55:23.889Z,11.60
2023-02-01T15:57:50.995Z,11.40
2023-02-01T16:00:29.409Z,11.30
2023-02-01T16:03:06.361Z,11.10
2023-02-01T16:05:39.426Z,11.00
2023-02-01T16:08:18.316Z,11.00
2023-02-01T16:10:46.774Z,11.00
2023-02-01T16:13:14.356Z,10.80
2023-02-01T16:15:41.188Z,10.70
2023-02-01T16:18:09.158Z,10.70
2023-02-01T16:20:37.083Z,10.70
2023-02-01T16:23:04.498Z,10.60
2023-02-01T16:25:31.484Z,10.60
2023-02-01T16:27:58.400Z,10.50
2023-02-01T16:30:25.490Z,10.50
2023-02-01T16:32:59.623Z,10.40
2023-02-01T16:35:29.117Z,10.30
2023-02-01T16:37:56.001Z,10.20
2023-02-01T16:40:22.871Z,10.10
2023-02-01T16:42:52.099Z,9.90
2023-02-01T16:45:19.000Z,9.80
2023-02-01T16:47:53.377Z,9.70
2023-02-01T16:50:24.408Z,9.70
2023-02-01T16:52:52.461Z,9.70
2023-02-01T16:55:22.701Z,9.60
2023-02-01T16:57:49.777Z,9.50
2023-02-01T17:00:25.476Z,9.40
2023-02-01T17:02:54.187Z,9.20
2023-02-01T17:05:21.151Z,8.90
2023-02-01T17:07:48.438Z,8.70
2023-02-01T17:10:32.559Z,8.60
2023-02-01T17:13:00.857Z,8.50
2023-02-01T17:15:28.779Z,8.50
2023-02-01T17:17:57.606Z,8.50
2023-02-01T17:20:25.607Z,8.50
2023-02-01T17:22:53.098Z,8.50
2023-02-01T17:25:21.523Z,8.40
2023-02-01T17:27:49.280Z,8.30
2023-02-01T17:30:16.279Z,8.10
2023-02-01T17:32:43.345Z,8.00
2023-02-01T17:35:25.192Z,8.00
2023-02-01T17:37:52.457Z,8.00
2023-02-01T17:40:19.499Z,8.00
2023-02-01T17:42:46.493Z,8.00
2023-02-01T17:45:40.485Z,8.00
2023-02-01T17:48:07.981Z,8.00
2023-02-01T17:50:37.990Z,8.00
2023-02-01T17:53:06.142Z,8.00
2023-02-01T17:55:34.582Z,8.00
2023-02-01T17:58:01.391Z,7.90
2023-02-01T18:00:28.172Z,7.80
2023-02-01T18:02:57.149Z,7.80
2023-02-01T18:05:37.441Z,7.60
2023-02-01T18:08:04.472Z,7.60
2023-02-01T18:10:31.347Z,7.60
2023-02-01T18:13:01.347Z,7.60
2023-02-01T18:15:29.530Z,7.60
2023-02-01T18:17:56.450Z,7.50
2023-02-01T18:20:24.442Z,7.30
2023-02-01T18:22:51.580Z,7.30
2023-02-01T18:25:23.835Z,7.20
2023-02-01T18:27:55.241Z,7.20
2023-02-01T18:30:23.510Z,7.10
2023-02-01T18:32:50.360Z,7.20
2023-02-01T18:35:18.533Z,7.20
2023-02-01T18:37:45.422Z,7.20
2023-02-01T18:40:25.307Z,7.10
2023-02-01T18:42:52.436Z,7.10
2023-02-01T18:45:31.347Z,7.00
2023-02-01T18:47:59.722Z,7.00
2023-02-01T18:50:28.269Z,6.90
2023-02-01T18:52:57.214Z,6.80
2023-02-01T18:55:25.044Z,6.80
2023-02-01T18:57:52.230Z,6.80
2023-02-01T19:00:21.023Z,6.80
2023-02-01T19:02:48.152Z,6.80
2023-02-01T19:05:15.150Z,6.80
2023-02-01T19:07:42.849Z,6.80
2023-02-01T19:10:12.942Z,6.80
2023-02-01T19:12:40.297Z,6.70
2023-02-01T19:15:08.764Z,6.70
2023-02-01T19:17:36.452Z,6.60
2023-02-01T19:20:04.867Z,6.60
2023-02-01T19:22:33.797Z,6.50
2023-02-01T19:25:00.780Z,6.50
2023-02-01T19:27:27.796Z,6.40
2023-02-01T19:29:54.618Z,6.40
2023-02-01T19:32:21.439Z,6.40
2023-02-01T19:34:48.599Z,6.30
2023-02-01T19:37:15.532Z,6.30
2023-02-01T19:39:42.462Z,6.30
2023-02-01T19:42:09.406Z,6.30
2023-02-01T19:44:36.499Z,6.30
2023-02-01T19:47:05.612Z,6.30
2023-02-01T19:49:32.449Z,6.20
2023-02-01T19:51:59.365Z,6.30
2023-02-01T19:54:26.315Z,6.30
2023-02-01T19:56:53.177Z,6.20
2023-02-01T19:59:22.851Z,6.20
2023-02-01T20:01:50.554Z,6.20
2023-02-01T20:04:17.593Z,6.20
2023-02-01T20:06:48.918Z,6.10
2023-02-01T20:09:19.866Z,6.10
2023-02-01T20:11:46.737Z,6.10
2023-02-01T20:14:13.638Z,6.00
2023-02-01T20:16:41.086Z,6.10
2023-02-01T20:19:09.280Z,6.10
2023-02-01T20:21:37.313Z,6.00
2023-02-01T20:24:04.843Z,5.90
2023-02-01T20:26:34.459Z,5.80
2023-02-01T20:29:01.819Z,5.70
2023-02-01T20:31:30.343Z,5.70
2023-02-01T20:33:57.886Z,5.70
2023-02-01T20:36:28.337Z,5.70
2023-02-01T20:38:55.466Z,5.60
2023-02-01T20:41:22.537Z,5.70
2023-02-01T20:43:49.341Z,5.70
2023-02-01T20:46:16.436Z,5.60
2023-02-01T20:48:47.399Z,5.50
2023-02-01T20:51:15.314Z,5.50
2023-02-01T20:53:45.363Z,5.40
2023-02-01T20:56:12.881Z,5.40
2023-02-01T20:58:39.933Z,5.40
2023-02-01T21:01:06.867Z,5.40
2023-02-01T21:03:35.126Z,5.40
2023-02-01T21:06:02.742Z,5.40
2023-02-01T21:08:29.739Z,5.30
2023-02-01T21:11:02.041Z,5.30
2023-02-01T21:13:30.630Z,5.30
2023-02-01T21:15:57.682Z,5.30
2023-02-01T21:18:24.895Z,5.30
2023-02-01T21:20:51.829Z,5.30
2023-02-01T21:23:18.757Z,5.30
2023-02-01T21:25:45.956Z,5.30
2023-02-01T21:28:12.885Z,5.30
2023-02-01T21:30:39.780Z,5.10
2023-02-01T21:33:07.824Z,5.00
2023-02-01T21:35:34.689Z,4.90
2023-02-01T21:38:01.520Z,4.90
2023-02-01T21:40:28.395Z,4.80
2023-02-01T21:42:55.215Z,4.80
2023-02-01T21:45:22.167Z,4.80
2023-02-01T21:47:49.785Z,4.80
2023-02-01T21:50:18.456Z,4.90
2023-02-01T21:52:45.386Z,4.90
2023-02-01T21:55:12.808Z,4.90
2023-02-01T21:57:39.961Z,4.90
2023-02-01T22:00:08.684Z,4.80
2023-02-01T22:02:35.800Z,4.80
2023-02-01T22:05:05.330Z,4.80
2023-02-01T22:07:33.529Z,4.80
2023-02-01T22:10:01.133Z,4.80
2023-02-01T22:12:28.022Z,4.80
2023-02-01T22:14:54.799Z,4.90
2023-02-01T22:17:21.598Z,4.80
2023-02-01T22:19:48.456Z,4.80
2023-02-01T22:22:16.541Z,4.80
2023-02-01T22:24:43.399Z,4.80
2023-02-01T22:27:13.404Z,4.80
2023-02-01T22:29:41.648Z,4.90
2023-02-01T22:32:09.035Z,4.90
2023-02-01T22:34:35.881Z,4.90
2023-02-01T22:37:03.140Z,5.00
2023-02-01T22:39:30.252Z,5.00
2023-02-01T22:41:57.013Z,5.00
2023-02-01T22:44:23.864Z,4.90
2023-02-01T22:46:50.703Z,4.90
2023-02-01T22:49:17.534Z,4.90
2023-02-01T22:51:44.441Z,4.80
2023-02-01T22:54:21.450Z,4.70
2023-02-01T22:56:48.304Z,4.70
2023-02-01T22:59:15.096Z,4.70
2023-02-01T23:01:45.017Z,4.70
2023-02-01T23:04:14.053Z,4.70
2023-02-01T23:06:41.069Z,4.70
2023-02-01T23:09:18.945Z,4.70
2023-02-01T23:11:45.959Z,4.60
2023-02-01T23:14:13.324Z,4.60
2023-02-01T23:16:41.378Z,4.60
2023-02-01T23:19:08.195Z,4.60
2023-02-01T23:21:35.164Z,4.50
2023-02-01T23:24:02.374Z,4.50
2023-02-01T23:26:31.139Z,4.50
2023-02-01T23:28:58.429Z,4.50
2023-02-01T23:31:27.630Z,4.50
2023-02-01T23:33:55.135Z,4.50
2023-02-01T23:36:22.577Z,4.50
2023-02-01T23:38:49.842Z,4.50
2023-02-01T23:41:17.620Z,4.50
2023-02-01T23:43:59.470Z,4.40
2023-02-01T23:46:34.773Z,4.30
2023-02-01T23:49:02.297Z,4.30
2023-02-01T23:51:29.369Z,4.30
2023-02-01T23:53:56.169Z,4.30
2023-02-01T23:56:25.791Z,4.30
2023-02-01T23:58:53.085Z,4.20
